Time;durP1;ratioP1;P1;durP2;ratioP2;P2;SDS_P1;SDS_P2;PMS_P1;PMS_P2;Temp;Humidity;BMP_temperature;BMP_pressure;BME280_temperature;BME280_humidity;BME280_pressure;Samples;Min_cycle;Max_cycle;Signal;HPM_P1;HPM_P2
2022/08/31 05:59:30;;;;;;;18.92;10.30;;;;;;;21.67;66.46;100018.88;1731346;82;21065;-55
2022/08/31 06:01:58;;;;;;;18.75;10.68;;;;;;;21.88;65.75;100018.27;1737375;79;21506;-45
2022/08/31 06:04:27;;;;;;;28.17;11.22;;;;;;;22.03;62.80;100021.49;1731579;81;21094;-45
2022/08/31 06:06:54;;;;;;;20.37;10.72;;;;;;;22.19;62.78;100020.23;1727138;81;21031;-44
2022/08/31 06:09:22;;;;;;;16.85;10.58;;;;;;;22.38;62.48;100019.27;1720107;81;20952;-54
2022/08/31 06:11:50;;;;;;;18.37;9.70;;;;;;;22.58;62.41;100022.60;1738335;81;20987;-45
2022/08/31 06:14:17;;;;;;;17.00;10.50;;;;;;;22.81;61.28;100016.49;1723361;81;21011;-53
2022/08/31 06:16:45;;;;;;;16.97;10.28;;;;;;;22.99;60.54;100015.50;1732468;81;20942;-54
2022/08/31 06:19:13;;;;;;;15.80;10.00;;;;;;;23.18;59.70;100011.33;1737474;82;20993;-45
2022/08/31 06:21:41;;;;;;;16.40;9.85;;;;;;;23.39;59.01;100013.26;1725389;82;20930;-44
2022/08/31 06:24:09;;;;;;;14.53;9.73;;;;;;;23.58;57.69;100009.90;1721816;82;21009;-54
2022/08/31 06:26:38;;;;;;;12.65;8.73;;;;;;;23.77;56.92;100007.52;1735556;79;20997;-44
2022/08/31 06:29:08;;;;;;;11.75;8.40;;;;;;;23.89;56.41;100016.16;1731456;81;21522;-54
2022/08/31 06:31:41;;;;;;;14.18;8.33;;;;;;;23.92;55.92;100021.30;1733496;81;21016;-45
2022/08/31 06:34:08;;;;;;;21.77;9.28;;;;;;;23.93;55.83;100020.83;1732636;82;21036;-45
2022/08/31 06:36:49;;;;;;;13.78;7.60;;;;;;;23.88;56.21;100023.77;1732616;81;21016;-54
2022/08/31 06:39:30;;;;;;;12.53;8.58;;;;;;;23.80;57.01;100028.72;1729617;82;21046;-44
2022/08/31 06:41:58;;;;;;;10.82;7.65;;;;;;;23.71;56.69;100034.58;1723737;82;21115;-44
2022/08/31 06:44:29;;;;;;;14.68;8.60;;;;;;;23.65;56.86;100039.80;1716854;82;20977;-45
2022/08/31 06:46:58;;;;;;;15.10;8.33;;;;;;;23.63;57.07;100034.56;1713781;82;21096;-54
2022/08/31 06:49:27;;;;;;;15.90;8.28;;;;;;;23.68;56.92;100044.13;1731666;81;21801;-44
2022/08/31 06:51:54;;;;;;;11.63;8.25;;;;;;;23.72;56.83;100045.67;1723143;82;21076;-47
2022/08/31 06:54:21;;;;;;;26.27;8.03;;;;;;;23.74;57.47;100050.44;1722365;82;20985;-47
2022/08/31 06:57:05;;;;;;;12.03;7.62;;;;;;;23.82;56.69;100052.17;1723422;82;21535;-45
2022/08/31 06:59:52;;;;;;;11.65;7.78;;;;;;;23.91;55.83;100049.45;1727562;82;21513;-45
2022/08/31 07:02:38;;;;;;;12.50;7.33;;;;;;;24.02;55.93;100046.53;1727633;81;21073;-45
2022/08/31 07:05:05;;;;;;;12.58;6.90;;;;;;;24.22;55.31;100039.98;1727122;81;21066;-45
2022/08/31 07:07:32;;;;;;;11.43;7.17;;;;;;;24.30;54.31;100047.08;1729040;81;21020;-55
2022/08/31 07:10:00;;;;;;;11.30;7.17;;;;;;;24.32;53.86;100045.64;1728742;82;21480;-54
2022/08/31 07:12:29;;;;;;;10.35;7.10;;;;;;;24.32;53.46;100044.30;1728700;81;21548;-44
2022/08/31 07:14:56;;;;;;;7.42;5.97;;;;;;;24.41;53.42;100039.30;1737505;82;20988;-54
2022/08/31 07:17:24;;;;;;;10.55;6.42;;;;;;;24.59;51.57;100033.29;1727957;81;21127;-54
2022/08/31 07:19:51;;;;;;;11.08;5.97;;;;;;;24.71;51.87;100032.14;1720839;82;21473;-45
2022/08/31 07:22:18;;;;;;;8.20;6.10;;;;;;;24.84;51.46;100028.59;1734718;81;21711;-56
2022/08/31 07:24:47;;;;;;;7.12;5.83;;;;;;;24.93;51.26;100029.80;1727106;82;20969;-54
2022/08/31 07:27:15;;;;;;;12.15;5.83;;;;;;;25.05;51.61;100024.15;1726523;81;21549;-54
2022/08/31 07:29:46;;;;;;;9.93;5.15;;;;;;;25.21;51.28;100030.27;1732305;82;21746;-54
2022/08/31 07:32:16;;;;;;;12.58;5.50;;;;;;;25.39;50.27;100024.19;1723625;82;21064;-45
2022/08/31 07:34:44;;;;;;;12.80;5.08;;;;;;;25.55;49.72;100026.73;1726176;82;20952;-44
2022/08/31 07:43:03;;;;;;;5.70;3.95;;;;;;;25.84;47.12;100016.77;1716534;82;21053;-54
2022/08/31 07:45:28;;;;;;;14.35;3.80;;;;;;;25.83;46.13;100021.28;1691380;84;20985;-54
2022/08/31 07:47:55;;;;;;;5.12;3.95;;;;;;;25.80;46.51;100018.79;1697930;84;21080;-54
2022/08/31 07:50:25;;;;;;;7.55;4.12;;;;;;;25.70;46.24;100024.38;1657415;85;21000;-44
2022/08/31 07:53:07;;;;;;;6.05;4.08;;;;;;;25.60;46.62;100027.28;1641313;87;21032;-46
2022/08/31 07:55:44;;;;;;;6.92;4.08;;;;;;;25.56;46.82;100027.95;1628082;87;20977;-45
2022/08/31 07:58:16;;;;;;;7.50;3.90;;;;;;;25.59;47.16;100029.59;1592897;89;21053;-54
2022/08/31 08:00:46;;;;;;;7.03;3.47;;;;;;;25.60;47.60;100026.80;1652611;87;21419;-54
2022/08/31 08:03:11;;;;;;;7.47;3.83;;;;;;;25.63;46.89;100025.76;1616714;89;21105;-44
2022/08/31 08:05:57;;;;;;;3.70;3.30;;;;;;;25.65;46.73;100023.83;1653003;87;21042;-44
2022/08/31 08:08:34;;;;;;;8.95;3.83;;;;;;;25.64;46.47;100020.29;1652726;85;21121;-55
2022/08/31 08:11:17;;;;;;;16.12;8.95;;;;;;;25.58;46.70;100020.70;1642742;87;21053;-45
2022/08/31 08:13:49;;;;;;;26.20;10.85;;;;;;;25.46;48.38;100024.19;1650240;87;21045;-54
2022/08/31 08:16:18;;;;;;;21.15;11.28;;;;;;;25.26;51.38;100025.96;1653994;85;21065;-45
2022/08/31 08:19:03;;;;;;;19.52;11.03;;;;;;;24.97;53.06;100025.13;1683385;84;21055;-55
2022/08/31 08:21:30;;;;;;;18.32;10.93;;;;;;;24.67;52.61;100027.45;1693453;84;21567;-55
2022/08/31 08:23:57;;;;;;;13.80;9.48;;;;;;;24.52;53.99;100025.72;1692651;85;21055;-46
2022/08/31 08:26:25;;;;;;;14.80;8.50;;;;;;;24.41;55.12;100021.03;1691904;84;21417;-55
2022/08/31 08:29:06;;;;;;;10.98;6.35;;;;;;;24.31;55.47;100022.54;1703350;82;21406;-45
2022/08/31 08:31:34;;;;;;;10.73;6.80;;;;;;;24.15;56.32;100008.76;1733706;80;20977;-44
2022/08/31 08:34:01;;;;;;;18.48;8.60;;;;;;;24.14;56.59;100019.08;1733051;80;21903;-45
2022/08/31 08:36:34;;;;;;;22.42;10.93;;;;;;;24.14;56.59;100019.08;1728684;82;21461;-55
2022/08/31 08:39:00;;;;;;;22.67;9.63;;;;;;;24.07;61.64;100016.39;1741435;82;21001;-55
2022/08/31 08:41:28;;;;;;;22.20;12.68;;;;;;;23.90;62.53;100016.55;1738413;82;21021;-55
2022/08/31 08:43:59;;;;;;;20.12;11.45;;;;;;;23.66;64.51;100019.30;1706174;82;21539;-45
2022/08/31 08:46:48;;;;;;;17.55;11.65;;;;;;;23.66;64.51;100019.30;1732445;82;21010;-55
2022/08/31 08:49:30;;;;;;;21.35;12.68;;;;;;;23.57;66.88;100018.86;1709468;82;20996;-45
2022/08/31 08:52:03;;;;;;;19.95;10.90;;;;;;;23.52;68.40;100018.74;1735367;80;20999;-55
2022/08/31 08:54:37;;;;;;;22.48;11.28;;;;;;;23.50;66.02;100014.84;1734630;80;21017;-55
2022/08/31 08:57:16;;;;;;;19.07;10.95;;;;;;;23.53;65.91;100009.30;1735379;80;21080;-44
2022/08/31 08:59:45;;;;;;;15.58;10.58;;;;;;;23.59;62.23;100013.42;1734022;80;21367;-44
2022/08/31 09:02:36;;;;;;;17.95;10.50;;;;;;;23.69;63.75;100005.30;1722820;80;21095;-55
2022/08/31 09:05:30;;;;;;;16.45;10.18;;;;;;;23.79;62.64;100004.30;1724493;81;20957;-55
2022/08/31 09:08:41;;;;;;;15.78;10.23;;;;;;;23.94;61.67;100002.51;1731363;81;21382;-55
2022/08/31 09:11:16;;;;;;;16.52;11.20;;;;;;;24.07;62.02;99998.17;1705412;82;20974;-44
2022/08/31 09:14:20;;;;;;;17.30;10.78;;;;;;;24.15;61.14;99998.55;1736347;81;21044;-55
2022/08/31 09:17:04;;;;;;;22.27;11.38;;;;;;;24.25;60.53;99998.86;1730120;82;21020;-55
2022/08/31 09:19:57;;;;;;;28.38;15.08;;;;;;;24.30;61.37;99988.75;1725744;82;21004;-55
2022/08/31 09:22:02;;;;;;;24.35;13.03;;;;;;;24.35;61.51;99996.91;1723778;82;21076;-55
2022/08/31 09:24:29;;;;;;;21.07;11.53;;;;;;;24.43;60.30;99996.90;1727179;81;22317;-55
2022/08/31 09:27:19;;;;;;;20.40;11.08;;;;;;;24.48;59.78;99996.14;1672686;85;22800;-45
2022/08/31 09:29:43;;;;;;;15.10;9.65;;;;;;;24.57;59.08;99994.21;1671012;84;21054;-55
2022/08/31 09:32:16;;;;;;;16.60;9.35;;;;;;;24.65;58.67;99985.25;1679704;83;21119;-45
2022/08/31 09:34:46;;;;;;;15.72;9.95;;;;;;;24.73;58.64;99974.91;1642803;86;21045;-45
2022/08/31 09:37:21;;;;;;;14.13;10.10;;;;;;;24.94;57.37;99975.36;1635647;85;21935;-45
2022/08/31 09:39:49;;;;;;;14.43;8.80;;;;;;;25.11;56.75;99979.66;1676722;85;21087;-45
2022/08/31 09:42:30;;;;;;;12.28;8.68;;;;;;;25.29;54.54;99977.11;1678244;83;21750;-55
2022/08/31 09:45:02;;;;;;;22.42;7.33;;;;;;;25.41;52.99;99974.95;1680016;85;21020;-55
2022/08/31 09:47:49;;;;;;;12.40;7.58;;;;;;;25.57;52.31;99976.59;1679860;83;21169;-44
2022/08/31 09:50:44;;;;;;;12.63;8.13;;;;;;;25.77;50.98;99973.47;1676076;83;21004;-45
2022/08/31 09:56:15;;;;;;;14.93;8.50;;;;;;;26.09;48.90;99966.36;1677847;83;21471;-55
2022/08/31 09:58:52;;;;;;;17.75;8.65;;;;;;;26.21;48.01;99965.05;1679842;83;21078;-45
2022/08/31 10:01:43;;;;;;;12.82;8.90;;;;;;;26.30;48.57;99961.34;1667941;84;21090;-55
2022/08/31 10:04:24;;;;;;;17.37;11.18;;;;;;;26.40;48.41;99963.27;1678917;83;21431;-56
2022/08/31 10:07:10;;;;;;;19.52;11.18;;;;;;;26.46;47.82;99960.18;1735218;80;20993;-45
2022/08/31 10:09:53;;;;;;;16.17;10.15;;;;;;;26.44;46.26;99954.08;1742484;82;21048;-45
2022/08/31 10:12:50;;;;;;;15.40;10.20;;;;;;;26.44;47.33;99948.72;1733631;82;21096;-46
2022/08/31 10:15:32;;;;;;;20.50;10.60;;;;;;;26.53;46.84;99949.87;1748730;81;21021;-45
2022/08/31 10:18:13;;;;;;;17.62;11.65;;;;;;;26.69;45.47;99949.63;1739577;80;21008;-54
2022/08/31 10:20:47;;;;;;;17.50;10.75;;;;;;;26.78;44.66;99954.31;1736604;80;21019;-44
2022/08/31 10:23:52;;;;;;;;;;;;;;;26.96;43.90;99948.08;1746376;80;21052;-45
2022/08/31 10:26:18;;;;;;;17.73;10.72;;;;;;;27.16;43.43;99954.23;1569324;90;20127;-55
2022/08/31 10:28:51;;;;;;;13.88;9.53;;;;;;;27.46;42.28;99941.66;1569220;90;21058;-45
2022/08/31 10:31:22;;;;;;;15.65;8.73;;;;;;;27.73;40.89;99940.09;1569538;90;21041;-56
2022/08/31 10:37:15;;;;;;;15.08;8.80;;;;;;;28.09;39.96;99943.09;1540779;91;21058;-55
2022/08/31 10:39:46;;;;;;;14.38;8.90;;;;;;;28.35;39.09;99935.70;1514635;94;21149;-45
2022/08/31 10:42:17;;;;;;;;;;;;;;;28.67;38.40;99923.32;1532360;92;21157;-55
2022/08/31 10:44:55;;;;;;;15.00;7.95;;;;;;;29.08;38.58;99923.99;1531311;93;20135;-45
2022/08/31 10:47:17;;;;;;;10.90;6.85;;;;;;;29.50;38.28;99930.30;1569107;90;21126;-55
2022/08/31 10:49:44;;;;;;;10.00;5.60;;;;;;;29.83;36.40;99928.46;1569684;91;21600;-55
2022/08/31 10:52:17;;;;;;;7.15;5.60;;;;;;;29.98;35.86;99930.31;1569806;90;21080;-55
2022/08/31 10:55:08;;;;;;;7.70;4.87;;;;;;;30.07;35.56;99929.52;1539469;93;21251;-45
2022/08/31 10:58:30;;;;;;;7.70;4.58;;;;;;;30.18;36.01;99920.89;1593953;88;21178;-55
2022/08/31 11:05:30;;;;;;;7.15;4.90;;;;;;;30.35;35.31;99911.31;1694525;82;21548;-45
2022/08/31 11:08:39;;;;;;;6.90;4.72;;;;;;;30.66;35.08;99904.52;1681893;84;21107;-54
2022/08/31 11:11:07;;;;;;;10.20;4.85;;;;;;;30.72;34.23;99898.59;1681708;84;21534;-45
2022/08/31 11:13:52;;;;;;;9.50;4.70;;;;;;;30.29;33.74;99909.66;1662900;85;21096;-55
2022/08/31 11:16:37;;;;;;;8.13;4.17;;;;;;;29.90;35.33;99902.17;1684826;85;21060;-55
2022/08/31 11:19:31;;;;;;;4.95;3.95;;;;;;;29.63;34.87;99894.65;1688222;84;21059;-54
2022/08/31 11:22:15;;;;;;;5.03;3.92;;;;;;;29.39;36.70;99899.38;1682278;84;21088;-55
2022/08/31 11:25:08;;;;;;;4.60;4.08;;;;;;;29.07;36.25;99903.44;1685105;84;21064;-46
2022/08/31 11:27:50;;;;;;;5.05;3.83;;;;;;;28.92;36.08;99898.78;1690146;83;21027;-55
2022/08/31 11:30:26;;;;;;;6.35;3.92;;;;;;;28.85;36.88;99897.59;1681886;84;21547;-55
2022/08/31 11:32:56;;;;;;;6.35;3.98;;;;;;;28.75;36.49;99895.28;1675211;84;21061;-46
2022/08/31 11:36:05;;;;;;;6.90;4.10;;;;;;;28.60;36.63;99890.67;1689780;83;21396;-45
2022/08/31 11:38:53;;;;;;;9.20;5.70;;;;;;;28.53;37.41;99890.32;1680179;84;21160;-55
2022/08/31 11:41:45;;;;;;;9.68;5.87;;;;;;;28.56;38.06;99879.78;1681033;84;20992;-45
2022/08/31 11:44:35;;;;;;;10.40;7.45;;;;;;;28.46;37.62;99886.39;1687014;84;21025;-55
2022/08/31 11:47:33;;;;;;;6.15;5.30;;;;;;;28.28;37.82;99900.80;1632233;86;21128;-55
2022/08/31 11:50:03;;;;;;;11.45;6.30;;;;;;;28.14;38.06;99903.75;1632880;87;21061;-45
2022/08/31 11:52:46;;;;;;;21.97;12.58;;;;;;;28.04;38.09;99894.69;1632283;86;21152;-55
2022/08/31 11:55:27;;;;;;;64.47;36.00;;;;;;;28.02;38.97;99890.78;1632318;87;21953;-55
2022/08/31 11:58:06;;;;;;;30.48;16.07;;;;;;;28.01;38.67;99884.19;1632925;86;21096;-55
2022/08/31 12:00:57;;;;;;;29.67;15.90;;;;;;;28.02;38.98;99885.41;1646373;84;21044;-55
2022/08/31 12:03:49;;;;;;;22.70;12.47;;;;;;;28.11;38.75;99888.69;1651929;85;21407;-45
2022/08/31 12:06:36;;;;;;;52.55;24.85;;;;;;;28.13;38.09;99881.88;1652063;86;21008;-55
2022/08/31 12:09:31;;;;;;;29.12;17.02;;;;;;;28.07;38.87;99891.77;1652420;86;21052;-55
2022/08/31 12:12:23;;;;;;;11.70;7.30;;;;;;;27.99;38.45;99883.44;1664687;84;21049;-55
2022/08/31 12:15:14;;;;;;;15.38;8.20;;;;;;;27.88;38.57;99882.08;1655601;84;21092;-45
2022/08/31 12:18:18;;;;;;;9.70;5.62;;;;;;;27.85;39.03;99876.47;1652470;85;21087;-56
2022/08/31 12:24:33;;;;;;;11.08;6.20;;;;;;;27.82;40.40;99870.83;1693554;84;21634;-45
